Time;durP1;ratioP1;P1;durP2;ratioP2;P2;SDS_P1;SDS_P2;PMS_P1;PMS_P2;Temp;Humidity;BMP_temperature;BMP_pressure;BME280_temperature;BME280_humidity;BME280_pressure;Samples;Min_cycle;Max_cycle;Signal;HPM_P1;HPM_P2
2022/06/15 00:00:56;;;;;;;;;5.00;5.00;;;;;;;;5016372;28;8831;-76
2022/06/15 00:03:26;;;;;;;;;7.75;5.25;;;;;;;;5020512;28;8857;-76
2022/06/15 00:06:03;;;;;;;;;6.00;6.00;;;;;;;;5012629;28;9497;-76
2022/06/15 00:08:31;;;;;;;;;4.75;4.75;;;;;;;;5021226;28;9863;-76
2022/06/15 00:10:58;;;;;;;;;10.00;5.50;;;;;;;;5022243;28;8902;-76
2022/06/15 00:13:28;;;;;;;;;6.00;6.00;;;;;;;;5006639;28;8975;-76
2022/06/15 00:15:55;;;;;;;;;3.00;3.00;;;;;;;;5018419;28;8892;-76
2022/06/15 00:18:28;;;;;;;;;5.00;5.00;;;;;;;;5022824;28;8992;-76
2022/06/15 00:20:58;;;;;;;;;8.25;6.50;;;;;;;;5018617;28;9042;-76
2022/06/15 00:23:26;;;;;;;;;6.00;6.00;;;;;;;;5013603;28;8860;-76
2022/06/15 00:25:54;;;;;;;;;7.00;7.00;;;;;;;;4999856;28;9003;-75
2022/06/15 00:28:22;;;;;;;;;4.00;4.00;;;;;;;;4997620;28;8884;-76
2022/06/15 00:30:50;;;;;;;;;6.75;6.75;;;;;;;;5016571;28;8816;-76
2022/06/15 00:33:19;;;;;;;;;8.75;6.00;;;;;;;;5019830;28;8888;-76
2022/06/15 00:35:57;;;;;;;;;6.50;6.50;;;;;;;;5021106;28;8856;-77
2022/06/15 00:38:25;;;;;;;;;6.00;6.00;;;;;;;;5020213;28;8966;-76
2022/06/15 00:40:52;;;;;;;;;6.25;6.25;;;;;;;;5002480;28;8991;-76
2022/06/15 00:43:35;;;;;;;;;6.75;6.75;;;;;;;;5019885;28;8919;-77
2022/06/15 00:46:07;;;;;;;;;7.50;5.50;;;;;;;;5019120;28;8856;-76
2022/06/15 00:48:34;;;;;;;;;10.75;10.75;;;;;;;;5009483;28;8872;-76
2022/06/15 00:51:03;;;;;;;;;8.00;8.00;;;;;;;;4996596;28;8987;-77
2022/06/15 00:53:31;;;;;;;;;13.75;13.00;;;;;;;;5025890;28;8872;-77
2022/06/15 00:55:59;;;;;;;;;11.50;11.50;;;;;;;;5022557;28;8880;-77
2022/06/15 00:58:26;;;;;;;;;13.00;12.00;;;;;;;;5003980;28;8853;-79
2022/06/15 01:00:56;;;;;;;;;10.75;10.75;;;;;;;;5018587;28;8824;-77
2022/06/15 01:03:24;;;;;;;;;12.00;11.50;;;;;;;;5020815;28;8868;-77
2022/06/15 01:05:59;;;;;;;;;12.33;11.00;;;;;;;;5018453;28;8865;-78
2022/06/15 01:08:34;;;;;;;;;13.25;10.75;;;;;;;;5003275;28;8951;-77
2022/06/15 01:11:34;;;;;;;;;7.25;7.25;;;;;;;;5017702;28;8907;-77
2022/06/15 01:14:23;;;;;;;;;11.25;10.50;;;;;;;;5011579;28;8898;-77
2022/06/15 01:16:57;;;;;;;;;14.75;13.50;;;;;;;;5003500;28;8868;-77
2022/06/15 01:19:51;;;;;;;;;13.50;12.75;;;;;;;;5019690;28;8911;-77
2022/06/15 01:22:33;;;;;;;;;9.75;9.75;;;;;;;;5023636;28;8893;-76
2022/06/15 01:25:37;;;;;;;;;11.00;10.75;;;;;;;;5020266;28;8891;-76
2022/06/15 01:28:50;;;;;;;;;8.50;8.50;;;;;;;;4997951;28;8880;-77
2022/06/15 01:31:27;;;;;;;;;12.00;9.00;;;;;;;;4948627;28;8816;-78
2022/06/15 01:34:03;;;;;;;;;10.50;9.00;;;;;;;;4956243;28;9340;-76
2022/06/15 01:36:40;;;;;;;;;10.25;10.25;;;;;;;;4987765;28;8877;-77
2022/06/15 01:39:11;;;;;;;;;9.25;6.50;;;;;;;;5024190;28;8883;-77
2022/06/15 01:41:45;;;;;;;;;11.00;10.25;;;;;;;;5023785;28;8889;-77
2022/06/15 01:44:16;;;;;;;;;9.00;9.00;;;;;;;;5023573;28;8880;-77
2022/06/15 01:46:46;;;;;;;;;10.00;8.50;;;;;;;;5022823;28;8908;-77
2022/06/15 01:49:18;;;;;;;;;10.00;10.00;;;;;;;;5018640;28;9308;-77
2022/06/15 01:51:46;;;;;;;;;11.00;9.67;;;;;;;;5017448;28;9819;-78
2022/06/15 01:54:16;;;;;;;;;15.67;13.00;;;;;;;;5023097;28;9004;-77
2022/06/15 01:56:46;;;;;;;;;11.33;9.00;;;;;;;;5021060;28;8975;-77
2022/06/15 01:59:18;;;;;;;;;13.00;11.33;;;;;;;;5019029;28;8927;-77
2022/06/15 02:01:58;;;;;;;;;12.33;9.67;;;;;;;;5005365;28;8956;-76
2022/06/15 02:04:34;;;;;;;;;9.67;9.67;;;;;;;;5024999;28;8932;-77
2022/06/15 02:07:13;;;;;;;;;9.00;9.00;;;;;;;;5020582;28;9215;-77
2022/06/15 02:09:47;;;;;;;;;10.00;10.00;;;;;;;;5023808;28;9082;-76
2022/06/15 02:12:18;;;;;;;;;9.33;9.33;;;;;;;;5022003;28;9112;-76
2022/06/15 02:14:48;;;;;;;;;10.00;10.00;;;;;;;;5017350;28;9207;-77
2022/06/15 02:17:21;;;;;;;;;9.33;9.33;;;;;;;;4999174;28;9252;-77
2022/06/15 02:19:52;;;;;;;;;9.00;9.00;;;;;;;;5022719;28;9154;-77
2022/06/15 02:22:22;;;;;;;;;9.00;9.00;;;;;;;;5017050;28;9863;-76
2022/06/15 02:24:55;;;;;;;;;9.00;9.00;;;;;;;;5012974;28;9224;-77
2022/06/15 02:27:25;;;;;;;;;11.00;11.00;;;;;;;;5023978;28;9230;-77
2022/06/15 02:29:56;;;;;;;;;7.33;6.00;;;;;;;;5011035;28;9177;-76
2022/06/15 02:32:28;;;;;;;;;11.00;11.00;;;;;;;;5021129;28;8973;-77
2022/06/15 02:34:55;;;;;;;;;8.00;8.00;;;;;;;;5020861;28;9019;-76
2022/06/15 02:37:22;;;;;;;;;6.00;6.00;;;;;;;;5024405;28;9034;-77
2022/06/15 02:39:50;;;;;;;;;10.67;9.00;;;;;;;;5021577;28;9186;-76
2022/06/15 02:42:27;;;;;;;;;11.67;10.00;;;;;;;;5023897;28;9021;-76
2022/06/15 02:44:57;;;;;;;;;8.00;8.00;;;;;;;;5016091;28;9126;-76
2022/06/15 02:47:30;;;;;;;;;7.67;7.33;;;;;;;;5012775;28;9092;-76
2022/06/15 02:49:57;;;;;;;;;10.67;10.67;;;;;;;;5012897;28;9107;-76
2022/06/15 02:52:28;;;;;;;;;10.67;7.67;;;;;;;;5005720;28;9193;-76
2022/06/15 02:54:57;;;;;;;;;8.00;8.00;;;;;;;;5013796;28;9042;-76
2022/06/15 02:57:25;;;;;;;;;6.67;6.67;;;;;;;;5013690;28;9156;-77
2022/06/15 02:59:53;;;;;;;;;6.00;6.00;;;;;;;;5022279;28;9867;-76
2022/06/15 03:02:20;;;;;;;;;7.33;5.00;;;;;;;;5020468;28;9006;-77
2022/06/15 03:04:50;;;;;;;;;10.00;9.67;;;;;;;;5024611;28;9007;-76
2022/06/15 03:07:20;;;;;;;;;9.33;7.33;;;;;;;;5006689;28;9112;-76
2022/06/15 03:09:48;;;;;;;;;6.00;6.00;;;;;;;;5009293;28;8954;-77
2022/06/15 03:12:15;;;;;;;;;8.33;8.33;;;;;;;;5006097;28;9038;-77
2022/06/15 03:14:42;;;;;;;;;6.75;5.50;;;;;;;;5018160;28;9047;-77
2022/06/15 03:17:10;;;;;;;;;8.25;8.00;;;;;;;;5022886;28;8994;-77
2022/06/15 03:19:37;;;;;;;;;4.75;4.75;;;;;;;;5024684;28;8872;-77
2022/06/15 03:22:06;;;;;;;;;9.00;8.00;;;;;;;;5023871;28;8887;-77
2022/06/15 03:24:34;;;;;;;;;9.00;9.00;;;;;;;;5024212;28;8960;-78
2022/06/15 03:27:01;;;;;;;;;5.00;3.50;;;;;;;;5015376;28;8872;-77
2022/06/15 03:29:28;;;;;;;;;5.00;5.00;;;;;;;;5006531;28;8919;-77
2022/06/15 03:31:56;;;;;;;;;5.00;5.00;;;;;;;;5023298;28;9669;-78
2022/06/15 03:34:23;;;;;;;;;5.67;5.67;;;;;;;;5022972;28;9029;-76
2022/06/15 03:36:50;;;;;;;;;6.67;6.67;;;;;;;;5023841;28;8953;-77
2022/06/15 03:39:19;;;;;;;;;5.00;5.00;;;;;;;;5022186;28;9038;-77
2022/06/15 03:41:47;;;;;;;;;5.00;5.00;;;;;;;;5007995;28;9107;-77
2022/06/15 03:44:14;;;;;;;;;5.67;5.67;;;;;;;;5024315;28;8932;-77
2022/06/15 03:46:42;;;;;;;;;6.33;6.33;;;;;;;;5022439;28;8974;-77
2022/06/15 03:49:09;;;;;;;;;8.67;8.67;;;;;;;;5024069;28;9776;-77
2022/06/15 03:51:36;;;;;;;;;6.67;6.67;;;;;;;;5021983;28;9111;-77
2022/06/15 03:54:04;;;;;;;;;9.00;8.00;;;;;;;;5023900;28;9133;-76
2022/06/15 03:56:43;;;;;;;;;8.00;5.67;;;;;;;;5017057;28;9148;-77
2022/06/15 03:59:11;;;;;;;;;6.67;5.67;;;;;;;;5020906;28;9048;-77
2022/06/15 04:01:38;;;;;;;;;5.00;4.67;;;;;;;;5018241;28;9260;-77
2022/06/15 04:04:06;;;;;;;;;4.00;4.00;;;;;;;;5022429;28;9115;-77
2022/06/15 04:06:33;;;;;;;;;7.33;7.33;;;;;;;;5023464;28;9122;-77
2022/06/15 04:09:00;;;;;;;;;9.33;9.33;;;;;;;;5020426;28;9291;-78
2022/06/15 04:14:15;;;;;;;;;7.33;7.33;;;;;;;;5023213;28;9316;-78
2022/06/15 04:16:43;;;;;;;;;10.33;7.33;;;;;;;;5022606;28;9389;-77
2022/06/15 04:19:11;;;;;;;;;8.67;8.67;;;;;;;;5020729;28;9305;-77
2022/06/15 04:21:38;;;;;;;;;6.00;6.00;;;;;;;;5021429;28;9471;-77
2022/06/15 04:24:11;;;;;;;;;7.67;6.67;;;;;;;;5021013;28;9346;-78
2022/06/15 04:26:38;;;;;;;;;10.00;8.00;;;;;;;;5013598;28;9261;-78
2022/06/15 04:29:06;;;;;;;;;5.00;5.00;;;;;;;;5012009;28;9307;-78
2022/06/15 04:31:34;;;;;;;;;9.00;8.00;;;;;;;;5014318;28;9239;-77
2022/06/15 04:34:02;;;;;;;;;7.67;7.67;;;;;;;;5019368;28;9337;-76
2022/06/15 04:36:31;;;;;;;;;7.00;7.00;;;;;;;;5012699;28;9416;-76
2022/06/15 04:38:59;;;;;;;;;6.33;6.33;;;;;;;;5010026;28;9266;-76
2022/06/15 04:41:26;;;;;;;;;8.00;8.00;;;;;;;;5016450;28;9273;-77
2022/06/15 04:43:54;;;;;;;;;5.00;5.00;;;;;;;;5016379;28;10063;-77
2022/06/15 04:46:21;;;;;;;;;4.67;4.67;;;;;;;;4994702;28;9402;-77
2022/06/15 04:48:50;;;;;;;;;5.67;5.67;;;;;;;;5019344;28;9298;-77
2022/06/15 04:51:21;;;;;;;;;9.00;9.00;;;;;;;;5013878;28;9329;-77
2022/06/15 04:53:48;;;;;;;;;8.67;8.33;;;;;;;;5015886;28;10126;-77
2022/06/15 04:56:16;;;;;;;;;4.33;4.33;;;;;;;;5013628;28;9407;-77
2022/06/15 04:58:44;;;;;;;;;8.00;8.00;;;;;;;;4986190;28;9881;-78
2022/06/15 05:01:11;;;;;;;;;5.33;5.33;;;;;;;;5009388;28;9049;-78
2022/06/15 05:03:40;;;;;;;;;8.00;5.67;;;;;;;;5017585;28;10092;-77
2022/06/15 05:06:13;;;;;;;;;9.67;8.00;;;;;;;;5012125;28;9038;-79
2022/06/15 05:08:41;;;;;;;;;5.33;5.33;;;;;;;;5020862;28;9733;-77
2022/06/15 05:11:08;;;;;;;;;8.00;8.00;;;;;;;;5018875;28;9867;-79
2022/06/15 05:13:36;;;;;;;;;5.00;5.00;;;;;;;;5019935;28;9218;-80
2022/06/15 05:16:04;;;;;;;;;11.00;9.67;;;;;;;;5006377;28;9006;-80
2022/06/15 05:18:31;;;;;;;;;11.00;9.00;;;;;;;;4990897;28;9089;-81
2022/06/15 05:21:01;;;;;;;;;9.00;9.00;;;;;;;;5010294;28;9675;-81
2022/06/15 05:23:30;;;;;;;;;9.50;9.50;;;;;;;;5012589;28;9036;-82
2022/06/15 05:26:00;;;;;;;;;9.67;9.33;;;;;;;;5018391;28;8920;-84
2022/06/15 05:28:28;;;;;;;;;8.25;8.25;;;;;;;;4997027;28;8961;-78
2022/06/15 05:31:03;;;;;;;;;13.25;10.00;;;;;;;;5018728;28;8890;-77
2022/06/15 05:33:32;;;;;;;;;7.25;7.25;;;;;;;;5014702;28;8881;-78
2022/06/15 05:36:03;;;;;;;;;10.50;8.00;;;;;;;;5016882;28;8876;-77
2022/06/15 05:38:31;;;;;;;;;12.00;12.00;;;;;;;;5014298;28;8915;-76
2022/06/15 05:40:59;;;;;;;;;13.50;12.25;;;;;;;;5014970;28;9474;-75
2022/06/15 05:43:26;;;;;;;;;12.00;11.50;;;;;;;;5014761;28;8954;-76
2022/06/15 05:45:53;;;;;;;;;10.50;10.50;;;;;;;;4993369;28;8894;-76
2022/06/15 05:48:21;;;;;;;;;4.50;4.50;;;;;;;;5020148;28;8853;-77
2022/06/15 05:50:48;;;;;;;;;8.25;8.25;;;;;;;;5019211;28;9654;-76
2022/06/15 05:53:15;;;;;;;;;10.75;10.75;;;;;;;;4998907;28;8868;-75
2022/06/15 05:55:44;;;;;;;;;11.50;11.50;;;;;;;;5022360;28;8946;-76
2022/06/15 05:58:11;;;;;;;;;12.50;12.50;;;;;;;;5023249;28;9019;-76
2022/06/15 06:00:38;;;;;;;;;11.75;11.75;;;;;;;;5017838;28;8824;-74
2022/06/15 06:03:06;;;;;;;;;12.00;10.25;;;;;;;;5018867;28;9656;-75
2022/06/15 06:05:33;;;;;;;;;11.00;11.00;;;;;;;;5023323;28;8881;-76
2022/06/15 06:08:01;;;;;;;;;12.00;12.00;;;;;;;;5024967;28;8864;-75
2022/06/15 06:10:28;;;;;;;;;9.25;8.00;;;;;;;;5020336;28;8877;-76
2022/06/15 06:12:58;;;;;;;;;13.00;11.25;;;;;;;;5024416;28;8856;-75
2022/06/15 06:15:26;;;;;;;;;13.50;12.00;;;;;;;;5004434;28;8841;-75
2022/06/15 06:17:53;;;;;;;;;8.00;8.00;;;;;;;;5019251;28;8849;-75
2022/06/15 06:20:21;;;;;;;;;10.00;9.25;;;;;;;;5020737;28;9446;-75
2022/06/15 06:22:48;;;;;;;;;13.25;11.50;;;;;;;;5023626;28;8868;-76
2022/06/15 06:25:15;;;;;;;;;8.75;8.75;;;;;;;;4991148;28;8978;-78
2022/06/15 06:27:43;;;;;;;;;13.25;13.25;;;;;;;;5022369;28;9597;-78
2022/06/15 06:30:13;;;;;;;;;11.00;11.00;;;;;;;;5020456;28;8879;-77
2022/06/15 06:32:40;;;;;;;;;10.75;8.50;;;;;;;;5024225;28;8856;-77
2022/06/15 06:35:09;;;;;;;;;14.00;14.00;;;;;;;;5020912;28;8942;-77
2022/06/15 06:37:37;;;;;;;;;9.00;9.00;;;;;;;;5021484;28;8894;-77
2022/06/15 06:40:06;;;;;;;;;12.00;11.50;;;;;;;;5000018;28;8892;-77
2022/06/15 06:42:35;;;;;;;;;6.00;5.25;;;;;;;;5007271;28;8988;-79
2022/06/15 06:45:03;;;;;;;;;11.25;9.75;;;;;;;;5024806;28;8881;-78
2022/06/15 06:47:32;;;;;;;;;13.75;13.00;;;;;;;;5021204;28;8875;-78
2022/06/15 06:49:59;;;;;;;;;15.00;11.67;;;;;;;;5025876;28;8904;-78
2022/06/15 06:52:27;;;;;;;;;11.00;11.00;;;;;;;;5017774;28;8836;-78
2022/06/15 06:54:54;;;;;;;;;9.00;8.75;;;;;;;;5018628;28;8876;-78
2022/06/15 06:57:21;;;;;;;;;10.25;10.25;;;;;;;;5018580;28;8861;-78
2022/06/15 06:59:49;;;;;;;;;9.00;9.00;;;;;;;;5018843;28;8873;-78
2022/06/15 07:02:16;;;;;;;;;9.50;9.25;;;;;;;;5004179;28;9737;-82
2022/06/15 07:04:45;;;;;;;;;11.25;10.25;;;;;;;;5018179;28;9578;-80
2022/06/15 07:07:13;;;;;;;;;10.75;10.75;;;;;;;;5021833;28;8986;-79
2022/06/15 07:09:40;;;;;;;;;11.00;11.00;;;;;;;;4998259;28;8868;-78
2022/06/15 07:12:08;;;;;;;;;10.50;10.50;;;;;;;;5019858;28;8918;-78
2022/06/15 07:14:36;;;;;;;;;11.00;11.00;;;;;;;;5013733;28;8894;-80
2022/06/15 07:17:04;;;;;;;;;12.00;12.00;;;;;;;;5019964;28;8882;-78
2022/06/15 07:19:32;;;;;;;;;10.00;10.00;;;;;;;;5006892;28;8849;-78
2022/06/15 07:22:01;;;;;;;;;12.00;11.00;;;;;;;;5022009;28;8864;-76
2022/06/15 07:24:28;;;;;;;;;9.50;9.50;;;;;;;;5027930;28;8876;-80
2022/06/15 07:26:56;;;;;;;;;10.50;10.50;;;;;;;;5023002;28;8836;-79
2022/06/15 07:29:24;;;;;;;;;10.00;10.00;;;;;;;;5020053;28;8899;-79
2022/06/15 07:31:54;;;;;;;;;9.00;9.00;;;;;;;;5022894;28;8859;-77
2022/06/15 07:34:25;;;;;;;;;8.00;8.00;;;;;;;;5000749;28;8872;-79
2022/06/15 07:36:53;;;;;;;;;9.00;9.00;;;;;;;;4995982;28;8902;-79
2022/06/15 07:39:27;;;;;;;;;10.00;8.20;;;;;;;;5008443;28;8887;-78
2022/06/15 07:41:55;;;;;;;;;9.60;8.80;;;;;;;;5021981;28;8893;-78
2022/06/15 07:44:27;;;;;;;;;10.60;8.80;;;;;;;;5015896;28;8923;-79
2022/06/15 07:52:21;;;;;;;;;9.60;9.20;;;;;;;;5012658;28;8839;-80
2022/06/15 07:54:51;;;;;;;;;8.40;8.40;;;;;;;;5023618;28;8864;-79
2022/06/15 07:57:18;;;;;;;;;10.80;9.40;;;;;;;;5023102;28;8896;-76
2022/06/15 07:59:45;;;;;;;;;9.80;8.00;;;;;;;;5015254;28;8902;-79
2022/06/15 08:02:13;;;;;;;;;8.20;8.20;;;;;;;;5004139;28;9619;-84
2022/06/15 08:04:41;;;;;;;;;8.00;8.00;;;;;;;;5014278;28;8852;-81
2022/06/15 08:07:10;;;;;;;;;9.40;9.00;;;;;;;;5005119;28;8875;-82
2022/06/15 08:09:37;;;;;;;;;8.20;7.80;;;;;;;;5024216;28;8852;-81
2022/06/15 08:12:15;;;;;;;;;6.20;6.20;;;;;;;;5023267;28;8852;-81
2022/06/15 08:14:45;;;;;;;;;6.80;6.60;;;;;;;;5017614;28;8861;-84
2022/06/15 08:17:17;;;;;;;;;6.60;6.60;;;;;;;;5016061;28;8880;-79
2022/06/15 08:19:48;;;;;;;;;10.00;9.60;;;;;;;;5018758;28;8877;-80
2022/06/15 08:22:15;;;;;;;;;5.80;5.80;;;;;;;;5021879;28;8873;-83
2022/06/15 08:24:44;;;;;;;;;7.60;7.60;;;;;;;;5022695;28;9634;-84
2022/06/15 08:27:14;;;;;;;;;7.00;7.00;;;;;;;;5022019;28;8868;-83
2022/06/15 08:29:47;;;;;;;;;9.40;9.40;;;;;;;;5023609;28;8876;-82
2022/06/15 08:32:15;;;;;;;;;4.80;4.80;;;;;;;;5003403;28;8936;-82
2022/06/15 08:34:43;;;;;;;;;6.60;6.60;;;;;;;;5014876;28;8864;-83
2022/06/15 08:37:12;;;;;;;;;6.20;6.20;;;;;;;;5019427;28;8950;-84
2022/06/15 08:39:43;;;;;;;;;9.00;7.40;;;;;;;;5014619;28;8890;-84
2022/06/15 08:42:23;;;;;;;;;7.00;7.00;;;;;;;;5023240;28;8877;-84
2022/06/15 08:45:13;;;;;;;;;7.60;6.80;;;;;;;;4994407;28;9006;-85
2022/06/15 08:48:10;;;;;;;;;5.40;5.40;;;;;;;;5021690;28;8998;-85
2022/06/15 08:50:40;;;;;;;;;6.60;6.60;;;;;;;;5001184;28;8888;-81
2022/06/15 08:53:14;;;;;;;;;4.80;4.80;;;;;;;;5020086;28;9609;-81
2022/06/15 08:55:46;;;;;;;;;8.40;7.60;;;;;;;;5021470;28;8849;-87
2022/06/15 08:58:22;;;;;;;;;6.00;6.00;;;;;;;;5019158;28;8967;-86
2022/06/15 09:00:54;;;;;;;;;5.80;5.80;;;;;;;;5021742;28;8848;-87
2022/06/15 09:03:35;;;;;;;;;7.00;7.00;;;;;;;;5022203;28;8995;-83
2022/06/15 09:06:13;;;;;;;;;6.20;6.20;;;;;;;;5018087;28;8903;-78
2022/06/15 09:08:59;;;;;;;;;5.00;5.00;;;;;;;;5020073;28;8878;-78
2022/06/15 09:11:40;;;;;;;;;4.60;4.60;;;;;;;;5015169;28;8904;-78
2022/06/15 09:14:20;;;;;;;;;6.20;6.20;;;;;;;;5003399;28;8884;-78
2022/06/15 09:16:54;;;;;;;;;6.00;5.00;;;;;;;;5012896;28;9651;-81
2022/06/15 09:19:26;;;;;;;;;5.80;5.80;;;;;;;;5019609;28;8868;-78
2022/06/15 09:21:58;;;;;;;;;4.60;4.60;;;;;;;;5022815;28;8895;-80
2022/06/15 09:24:29;;;;;;;;;8.40;5.40;;;;;;;;5020518;28;8894;-83
2022/06/15 09:27:01;;;;;;;;;4.00;4.00;;;;;;;;5014422;28;8889;-80
2022/06/15 09:29:34;;;;;;;;;7.00;5.00;;;;;;;;5028862;28;8862;-80
2022/06/15 09:32:06;;;;;;;;;6.60;6.60;;;;;;;;5021442;28;8832;-79
2022/06/15 09:34:37;;;;;;;;;4.40;4.40;;;;;;;;5025865;28;9019;-80
2022/06/15 09:37:10;;;;;;;;;4.60;4.00;;;;;;;;5028592;28;9543;-79
2022/06/15 09:39:38;;;;;;;;;5.00;5.00;;;;;;;;5029823;28;8872;-81
2022/06/15 09:42:12;;;;;;;;;5.60;5.60;;;;;;;;5025955;28;9747;-81
2022/06/15 09:44:51;;;;;;;;;4.80;4.80;;;;;;;;5017661;28;8895;-81
2022/06/15 09:47:31;;;;;;;;;5.20;5.20;;;;;;;;5022258;28;8904;-81
2022/06/15 09:50:06;;;;;;;;;4.20;4.20;;;;;;;;5023369;28;8883;-80
2022/06/15 09:52:44;;;;;;;;;5.00;5.00;;;;;;;;5026179;28;8872;-82
2022/06/15 09:55:16;;;;;;;;;5.00;4.40;;;;;;;;5025615;28;9010;-79
2022/06/15 09:57:44;;;;;;;;;4.80;4.80;;;;;;;;5015560;28;8930;-80
2022/06/15 10:00:16;;;;;;;;;3.60;3.60;;;;;;;;5025804;28;8942;-80
2022/06/15 10:02:47;;;;;;;;;4.00;4.00;;;;;;;;5023834;28;8870;-79
2022/06/15 10:05:21;;;;;;;;;4.00;4.00;;;;;;;;5023396;28;8894;-76
2022/06/15 10:07:48;;;;;;;;;3.80;3.80;;;;;;;;5024642;28;9555;-81
2022/06/15 10:10:19;;;;;;;;;8.00;5.40;;;;;;;;5025082;28;8887;-82
2022/06/15 10:12:58;;;;;;;;;3.80;3.80;;;;;;;;5026343;28;8861;-81
2022/06/15 10:15:35;;;;;;;;;4.60;4.60;;;;;;;;5025362;28;8869;-81
2022/06/15 10:18:15;;;;;;;;;3.60;3.60;;;;;;;;5022847;28;9004;-81
2022/06/15 10:20:55;;;;;;;;;6.60;5.00;;;;;;;;5025757;28;8873;-81
2022/06/15 10:23:30;;;;;;;;;4.40;4.40;;;;;;;;5029184;28;8864;-81
2022/06/15 10:25:58;;;;;;;;;2.60;2.60;;;;;;;;5024639;28;8884;-81
2022/06/15 10:28:28;;;;;;;;;5.00;5.00;;;;;;;;5025185;28;8860;-80
2022/06/15 10:31:00;;;;;;;;;4.00;4.00;;;;;;;;5029020;28;8801;-80
2022/06/15 10:33:36;;;;;;;;;4.60;4.60;;;;;;;;5024040;28;8903;-81
2022/06/15 10:36:05;;;;;;;;;4.60;4.60;;;;;;;;5025620;28;8879;-81
2022/06/15 10:38:41;;;;;;;;;7.00;4.60;;;;;;;;5006591;28;8979;-81
2022/06/15 10:43:50;;;;;;;;;4.00;4.00;;;;;;;;5025096;28;8904;-80
2022/06/15 10:46:21;;;;;;;;;5.00;5.00;;;;;;;;5024646;28;8902;-81
2022/06/15 10:48:50;;;;;;;;;4.00;4.00;;;;;;;;5011966;28;8860;-81
2022/06/15 10:51:31;;;;;;;;;4.00;4.00;;;;;;;;5015973;28;8872;-81
2022/06/15 10:54:22;;;;;;;;;4.80;4.80;;;;;;;;5014510;28;8880;-81
2022/06/15 11:02:30;;;;;;;;;6.00;4.00;;;;;;;;5022757;28;8944;-80
2022/06/15 11:05:03;;;;;;;;;6.40;5.00;;;;;;;;5023088;28;8975;-80
2022/06/15 11:07:34;;;;;;;;;5.40;4.20;;;;;;;;5024139;28;8969;-80
2022/06/15 11:10:09;;;;;;;;;5.00;5.00;;;;;;;;5024522;28;8946;-81
2022/06/15 11:12:40;;;;;;;;;5.60;5.60;;;;;;;;5005423;28;8888;-80
2022/06/15 11:18:01;;;;;;;;;5.00;5.00;;;;;;;;5002364;28;9018;-81
2022/06/15 11:18:29;;;;;;;;;4.00;4.00;;;;;;;;5009560;28;8853;-80
2022/06/15 11:21:01;;;;;;;;;4.80;4.80;;;;;;;;5019409;28;9700;-80
2022/06/15 11:23:35;;;;;;;;;5.60;5.60;;;;;;;;5019200;28;8876;-80
2022/06/15 11:26:52;;;;;;;;;4.20;4.20;;;;;;;;4996288;28;8898;-80
2022/06/15 11:28:56;;;;;;;;;4.80;4.80;;;;;;;;5025165;28;8859;-80
2022/06/15 11:31:28;;;;;;;;;5.00;5.00;;;;;;;;5018875;28;8817;-80
2022/06/15 11:34:03;;;;;;;;;4.00;4.00;;;;;;;;5004645;28;8873;-81
2022/06/15 11:36:33;;;;;;;;;4.80;4.80;;;;;;;;5019706;28;8937;-80
2022/06/15 11:39:07;;;;;;;;;5.40;5.40;;;;;;;;5026607;28;8873;-80
2022/06/15 11:41:41;;;;;;;;;6.00;5.40;;;;;;;;5024368;28;9630;-80
2022/06/15 11:44:16;;;;;;;;;5.00;5.00;;;;;;;;5020372;28;8836;-80
2022/06/15 11:46:55;;;;;;;;;4.60;4.60;;;;;;;;5019979;28;8995;-80
2022/06/15 11:49:35;;;;;;;;;4.80;4.80;;;;;;;;5017927;28;8875;-78
2022/06/15 11:52:15;;;;;;;;;6.80;5.00;;;;;;;;4999208;28;8880;-83
2022/06/15 11:55:04;;;;;;;;;4.00;4.00;;;;;;;;5018374;28;8895;-80
2022/06/15 11:57:41;;;;;;;;;7.00;7.00;;;;;;;;5010732;28;8859;-81
2022/06/15 12:00:22;;;;;;;;;9.00;5.80;;;;;;;;5015605;28;8879;-81
2022/06/15 12:06:25;;;;;;;;;6.40;6.40;;;;;;;;5962710;22;8834;-84
2022/06/15 12:09:27;;;;;;;;;5.20;5.20;;;;;;;;5012045;28;8883;-87
2022/06/15 12:21:57;;;;;;;;;4.00;4.00;;;;;;;;5293249;22;8873;-88
2022/06/15 12:24:32;;;;;;;;;7.00;7.00;;;;;;;;5015106;28;8901;-84
2022/06/15 12:27:04;;;;;;;;;5.00;5.00;;;;;;;;5032578;28;9005;-85
2022/06/15 12:29:43;;;;;;;;;5.60;5.60;;;;;;;;5032321;28;8851;-86
2022/06/15 12:32:51;;;;;;;;;6.00;6.00;;;;;;;;5027795;28;8821;-90
2022/06/15 12:35:31;;;;;;;;;5.20;5.20;;;;;;;;5026253;28;8847;-87
2022/06/15 12:38:21;;;;;;;;;5.60;5.40;;;;;;;;5031778;28;8884;-87
2022/06/15 12:40:52;;;;;;;;;7.20;7.20;;;;;;;;5026702;28;8993;-87
2022/06/15 12:43:41;;;;;;;;;7.00;7.00;;;;;;;;5033647;28;8946;-85
2022/06/15 12:46:25;;;;;;;;;6.00;6.00;;;;;;;;5031339;28;8922;-86
2022/06/15 12:49:10;;;;;;;;;6.00;6.00;;;;;;;;5024242;28;8903;-87
2022/06/15 12:51:45;;;;;;;;;5.40;5.40;;;;;;;;5028988;28;8880;-87
2022/06/15 12:54:19;;;;;;;;;3.60;3.60;;;;;;;;5028412;28;8857;-87
2022/06/15 12:59:47;;;;;;;;;5.60;5.60;;;;;;;;5030978;28;8972;-87
2022/06/15 13:02:21;;;;;;;;;6.00;5.00;;;;;;;;5030362;28;8895;-86
2022/06/15 13:05:01;;;;;;;;;4.60;4.60;;;;;;;;5030317;28;8871;-87
2022/06/15 13:07:56;;;;;;;;;6.20;6.20;;;;;;;;5035589;28;8887;-87
2022/06/15 13:10:27;;;;;;;;;7.60;6.00;;;;;;;;5025126;28;8856;-85
2022/06/15 13:12:59;;;;;;;;;4.00;4.00;;;;;;;;5033434;28;8993;-82
2022/06/15 13:15:31;;;;;;;;;6.20;6.20;;;;;;;;5019499;28;8883;-87
2022/06/15 13:18:12;;;;;;;;;8.00;6.00;;;;;;;;5029237;28;8912;-85
2022/06/15 13:27:35;;;;;;;;;6.00;6.00;;;;;;;;4947164;28;8916;-87
2022/06/15 13:30:25;;;;;;;;;5.00;5.00;;;;;;;;4951128;28;9015;-85
2022/06/15 13:33:00;;;;;;;;;6.00;6.00;;;;;;;;5010332;28;8853;-87
2022/06/15 13:35:41;;;;;;;;;6.40;6.40;;;;;;;;5034238;28;8869;-87
2022/06/15 13:38:34;;;;;;;;;6.60;6.00;;;;;;;;5036921;28;8965;-89
2022/06/15 13:41:28;;;;;;;;;7.00;6.20;;;;;;;;5033891;28;8855;-91
2022/06/15 13:44:18;;;;;;;;;6.00;6.00;;;;;;;;5022967;28;9609;-88
2022/06/15 13:47:02;;;;;;;;;6.00;6.00;;;;;;;;5021730;28;8919;-92
2022/06/15 13:50:06;;;;;;;;;5.40;5.40;;;;;;;;5039846;28;8862;-90
2022/06/15 13:52:38;;;;;;;;;5.40;5.40;;;;;;;;5031282;28;8923;-86
2022/06/15 13:55:36;;;;;;;;;8.00;6.60;;;;;;;;5030401;28;8906;-85
2022/06/15 13:58:31;;;;;;;;;5.20;5.20;;;;;;;;4983670;28;8876;-88
2022/06/15 14:01:09;;;;;;;;;6.60;6.60;;;;;;;;5021687;28;8805;-86
2022/06/15 14:03:51;;;;;;;;;5.80;5.80;;;;;;;;5020222;28;8856;-88
2022/06/15 14:06:30;;;;;;;;;6.00;6.00;;;;;;;;5025992;28;8823;-87
2022/06/15 14:09:09;;;;;;;;;7.20;5.80;;;;;;;;4986423;28;8872;-87
2022/06/15 14:12:04;;;;;;;;;6.80;6.80;;;;;;;;5018370;28;8864;-87
2022/06/15 14:14:47;;;;;;;;;6.00;6.00;;;;;;;;5017931;28;8866;-88
2022/06/15 14:17:40;;;;;;;;;3.00;3.00;;;;;;;;5019061;28;8873;-87
2022/06/15 14:20:16;;;;;;;;;5.00;5.00;;;;;;;;5018558;28;8828;-88
2022/06/15 14:22:50;;;;;;;;;4.80;4.80;;;;;;;;5022688;28;8876;-89
2022/06/15 14:25:21;;;;;;;;;5.20;5.00;;;;;;;;5025761;28;8943;-87
2022/06/15 14:27:53;;;;;;;;;4.00;4.00;;;;;;;;5004426;28;8876;-87
2022/06/15 14:30:32;;;;;;;;;5.20;5.20;;;;;;;;5026813;28;8861;-88
2022/06/15 14:33:02;;;;;;;;;6.20;6.20;;;;;;;;5003435;28;8903;-88
2022/06/15 14:35:43;;;;;;;;;5.40;5.40;;;;;;;;5029415;28;8886;-88
2022/06/15 14:38:18;;;;;;;;;5.60;5.60;;;;;;;;5006466;28;8887;-87
2022/06/15 14:40:45;;;;;;;;;5.00;5.00;;;;;;;;5021679;28;8900;-86
2022/06/15 14:43:14;;;;;;;;;6.40;5.80;;;;;;;;5026692;28;9665;-87
2022/06/15 14:45:43;;;;;;;;;6.80;6.80;;;;;;;;5024690;28;8995;-87
2022/06/15 14:48:14;;;;;;;;;5.00;5.00;;;;;;;;5014376;28;8986;-83
2022/06/15 14:50:43;;;;;;;;;5.00;5.00;;;;;;;;5021317;28;8912;-84
2022/06/15 14:53:15;;;;;;;;;3.00;3.00;;;;;;;;5022905;28;8873;-85
2022/06/15 14:55:44;;;;;;;;;3.25;3.25;;;;;;;;5008967;28;8847;-84
2022/06/15 14:58:15;;;;;;;;;6.25;6.25;;;;;;;;5008823;28;8991;-86
2022/06/15 15:00:44;;;;;;;;;5.00;3.75;;;;;;;;5016077;28;8951;-90
2022/06/15 15:03:25;;;;;;;;;6.75;6.75;;;;;;;;5027087;28;8991;-89
2022/06/15 15:05:57;;;;;;;;;5.00;5.00;;;;;;;;5019131;28;8863;-87
2022/06/15 15:08:37;;;;;;;;;4.00;4.00;;;;;;;;5035532;28;8853;-87
2022/06/15 15:11:07;;;;;;;;;5.00;5.00;;;;;;;;5000803;28;8877;-87
2022/06/15 15:13:38;;;;;;;;;4.50;4.50;;;;;;;;5025823;28;8907;-91
2022/06/15 15:16:08;;;;;;;;;4.00;4.00;;;;;;;;5011561;28;8896;-85
2022/06/15 15:18:50;;;;;;;;;6.00;6.00;;;;;;;;5028241;28;8863;-82
2022/06/15 15:21:26;;;;;;;;;5.25;5.25;;;;;;;;5031049;28;8847;-88
2022/06/15 15:23:55;;;;;;;;;4.25;4.25;;;;;;;;5034842;28;8877;-84
2022/06/15 15:26:35;;;;;;;;;4.50;4.50;;;;;;;;5026801;28;8876;-83
2022/06/15 15:35:04;;;;;;;;;4.00;4.00;;;;;;;;5032479;28;8831;-84
2022/06/15 15:37:36;;;;;;;;;4.00;4.00;;;;;;;;5027968;28;8896;-82
2022/06/15 15:40:09;;;;;;;;;4.20;4.20;;;;;;;;5031525;28;8858;-82
2022/06/15 15:42:37;;;;;;;;;5.00;3.80;;;;;;;;5031890;28;8868;-84
2022/06/15 15:45:07;;;;;;;;;3.80;3.00;;;;;;;;5028886;28;8864;-91
2022/06/15 15:47:34;;;;;;;;;4.80;4.80;;;;;;;;5028424;28;9028;-82
2022/06/15 15:50:01;;;;;;;;;3.80;3.80;;;;;;;;5040764;28;8963;-82
2022/06/15 15:52:28;;;;;;;;;5.00;5.00;;;;;;;;5028920;28;8865;-81
2022/06/15 15:54:57;;;;;;;;;3.40;3.40;;;;;;;;5029639;28;8996;-83
2022/06/15 15:57:24;;;;;;;;;3.00;3.00;;;;;;;;5025194;28;8946;-86
2022/06/15 15:59:53;;;;;;;;;3.20;3.20;;;;;;;;5020751;28;8875;-83
2022/06/15 16:02:23;;;;;;;;;5.40;3.80;;;;;;;;5024874;28;8817;-81
2022/06/15 16:04:51;;;;;;;;;4.60;4.60;;;;;;;;5036197;28;8903;-84
2022/06/15 16:07:23;;;;;;;;;4.00;4.00;;;;;;;;5031543;28;8883;-83
2022/06/15 16:09:52;;;;;;;;;5.00;5.00;;;;;;;;5037066;28;8858;-82